createdAt,value
2023-01-28T01:15:42.017Z,1.80
2023-01-28T01:24:11.608Z,1.80
2023-01-28T01:29:47.849Z,1.80
2023-01-28T01:32:44.292Z,1.50
2023-01-28T01:38:26.144Z,1.70
2023-01-28T01:44:34.174Z,1.80
2023-01-28T01:47:25.524Z,1.70
2023-01-28T01:50:16.389Z,1.70
2023-01-28T01:53:09.806Z,1.70
2023-01-28T02:01:31.475Z,1.70
2023-01-28T02:07:15.902Z,1.70
2023-01-28T02:10:06.510Z,1.40
2023-01-28T02:12:58.917Z,2.40
2023-01-28T02:15:49.243Z,1.60
2023-01-28T02:18:39.272Z,2.10
2023-01-28T02:24:25.485Z,1.60
2023-01-28T02:27:25.763Z,2.20
2023-01-28T02:30:20.950Z,1.50
2023-01-28T02:41:47.011Z,1.60
2023-01-28T02:44:37.079Z,1.50
2023-01-28T02:47:42.102Z,1.60
2023-01-28T02:56:38.096Z,1.50
2023-01-28T03:02:24.187Z,1.50
2023-01-28T03:05:21.476Z,1.40
2023-01-28T03:11:12.123Z,1.40
2023-01-28T03:17:05.802Z,1.40
2023-01-28T03:20:08.557Z,3.20
2023-01-28T03:23:11.712Z,1.40
2023-01-28T03:26:17.074Z,1.30
2023-01-28T03:32:22.746Z,1.20
2023-01-28T03:46:58.932Z,1.60
2023-01-28T03:49:49.536Z,0.30
2023-01-28T03:52:39.594Z,1.30
2023-01-28T03:55:29.460Z,1.40
2023-01-28T03:58:20.531Z,1.30
2023-01-28T04:01:10.497Z,1.30
2023-01-28T04:06:51.968Z,1.30
2023-01-28T04:09:41.926Z,1.70
2023-01-28T04:18:14.406Z,1.30
2023-01-28T04:21:04.385Z,0.90
2023-01-28T04:23:56.933Z,1.80
2023-01-28T04:29:39.627Z,1.30
2023-01-28T04:43:57.683Z,1.30
2023-01-28T04:46:47.834Z,0.50
2023-01-28T04:49:39.394Z,1.20
2023-01-28T05:07:05.931Z,1.30
2023-01-28T05:09:55.973Z,0.90
2023-01-28T05:15:38.831Z,1.30
2023-01-28T05:21:25.589Z,1.20
2023-01-28T05:29:56.470Z,1.10
2023-01-28T05:38:16.780Z,1.10
2023-01-28T05:52:29.347Z,0.90
2023-01-28T05:58:21.426Z,1.00
2023-01-28T06:04:06.363Z,1.10
2023-01-28T06:12:40.410Z,1.00
2023-01-28T06:21:08.506Z,1.00
2023-01-28T06:23:58.522Z,0.70
2023-01-28T06:35:13.726Z,1.10
2023-01-28T06:46:41.523Z,0.90
2023-01-28T06:52:23.341Z,0.90
2023-01-28T06:58:02.013Z,0.90
2023-01-28T07:00:52.200Z,3.40
2023-01-28T07:06:26.583Z,0.80
2023-01-28T07:12:00.959Z,0.80
2023-01-28T07:35:36.384Z,1.00
2023-01-28T07:38:33.576Z,1.00
2023-01-28T07:44:16.505Z,1.00
2023-01-28T07:47:06.683Z,1.00
2023-01-28T07:50:04.556Z,3.90
2023-01-28T08:01:33.032Z,1.20
2023-01-28T08:04:26.633Z,2.00
2023-01-28T08:13:07.945Z,1.10
2023-01-28T08:21:42.133Z,1.10
2023-01-28T08:24:35.652Z,0.10
2023-01-28T08:33:04.110Z,1.20
2023-01-28T08:35:54.095Z,1.10
2023-01-28T08:38:47.215Z,1.30
2023-01-28T08:44:26.371Z,1.40
2023-01-28T09:02:00.973Z,1.40
2023-01-28T09:04:51.041Z,1.50
2023-01-28T09:07:48.584Z,1.60
2023-01-28T09:13:25.623Z,2.00
2023-01-28T09:19:15.861Z,2.20
2023-01-28T09:22:12.543Z,2.10
2023-01-28T09:25:07.583Z,2.10
2023-01-28T09:30:53.448Z,1.90
2023-01-28T09:36:29.345Z,1.60
2023-01-28T09:39:23.606Z,0.00
2023-01-28T09:42:27.942Z,1.50
2023-01-28T09:45:19.135Z,1.70
2023-01-28T09:56:54.495Z,1.50
2023-01-28T10:05:51.400Z,1.70
2023-01-28T10:08:45.703Z,1.70
2023-01-28T10:17:25.537Z,1.50
2023-01-28T10:20:22.370Z,1.60
2023-01-28T10:23:18.977Z,1.50
2023-01-28T10:26:15.525Z,4.10
2023-01-28T10:37:49.669Z,2.00
2023-01-28T10:43:48.489Z,2.20
2023-01-28T10:46:48.840Z,2.30
2023-01-28T10:49:46.806Z,2.40
2023-01-28T10:58:13.592Z,2.40
2023-01-28T11:03:50.641Z,2.30
2023-01-28T11:09:24.628Z,2.10
2023-01-28T11:21:01.255Z,1.80
2023-01-28T11:26:53.505Z,2.00
2023-01-28T11:44:12.664Z,2.40
2023-01-28T11:47:06.605Z,2.40
2023-01-28T11:50:00.623Z,2.50
2023-01-28T11:53:06.511Z,2.40
2023-01-28T12:01:42.899Z,2.10
2023-01-28T12:10:24.745Z,2.60
2023-01-28T12:16:13.833Z,2.80
2023-01-28T12:19:08.227Z,2.90
2023-01-28T12:22:06.086Z,3.20
2023-01-28T12:27:47.731Z,3.00
2023-01-28T12:33:34.412Z,2.90
2023-01-28T12:39:24.975Z,2.70
2023-01-28T12:42:19.671Z,2.60
2023-01-28T12:51:04.743Z,2.70
2023-01-28T13:05:44.275Z,2.50
2023-01-28T13:11:41.694Z,2.30
2023-01-28T13:17:32.676Z,2.30
2023-01-28T13:23:20.732Z,2.20
2023-01-28T13:29:21.839Z,2.00
2023-01-28T13:46:38.283Z,2.10
2023-01-28T13:52:17.664Z,2.20
2023-01-28T13:58:02.498Z,2.10
2023-01-28T14:01:11.136Z,2.80
2023-01-28T14:04:08.714Z,2.10
2023-01-28T14:07:02.774Z,2.10
2023-01-28T14:15:36.607Z,2.00
2023-01-28T14:21:18.778Z,2.00
2023-01-28T14:33:08.702Z,1.90
2023-01-28T14:38:57.635Z,1.70
2023-01-28T14:44:53.606Z,1.70
2023-01-28T14:50:55.210Z,1.60
2023-01-28T14:53:50.601Z,1.50
2023-01-28T15:02:22.643Z,1.50
2023-01-28T15:19:49.212Z,1.30
2023-01-28T15:28:25.676Z,1.20
2023-01-28T15:36:52.234Z,1.10
2023-01-28T15:39:42.225Z,3.20
2023-01-28T15:42:32.226Z,0.90
2023-01-28T15:48:18.257Z,0.80
2023-01-28T15:51:11.818Z,-0.40
2023-01-28T15:54:09.174Z,0.70
2023-01-28T15:59:48.690Z,0.80
2023-01-28T16:05:35.713Z,0.70
2023-01-28T16:11:24.810Z,0.50
2023-01-28T16:14:21.032Z,0.50
2023-01-28T16:17:14.721Z,0.40
2023-01-28T16:25:51.945Z,0.40
2023-01-28T16:28:46.387Z,0.40
2023-01-28T16:31:41.308Z,0.40
2023-01-28T16:34:42.549Z,0.30
2023-01-28T16:37:44.962Z,0.20
2023-01-28T16:40:41.467Z,0.20
2023-01-28T16:46:15.841Z,0.20
2023-01-28T16:49:13.751Z,0.20
2023-01-28T17:01:08.403Z,0.00
2023-01-28T17:04:11.985Z,0.00
2023-01-28T17:07:05.832Z,0.00
2023-01-28T17:15:55.806Z,-0.10
2023-01-28T17:33:02.956Z,-0.10
2023-01-28T17:35:57.802Z,-0.10
2023-01-28T21:10:58.731Z,0.00
2023-01-28T21:22:22.922Z,0.00
2023-01-28T21:25:22.839Z,0.20
2023-01-28T21:28:16.663Z,0.20
2023-01-28T21:34:01.871Z,0.30
2023-01-28T21:39:44.127Z,0.50
2023-01-28T21:42:43.248Z,0.50
2023-01-28T22:06:12.793Z,0.70
2023-01-28T22:12:02.697Z,0.80
2023-01-28T22:40:51.641Z,1.20
2023-01-28T22:46:33.039Z,1.20
2023-01-28T22:52:14.744Z,1.40
2023-01-28T22:55:07.599Z,1.40
2023-01-28T22:58:04.733Z,1.40
2023-01-28T23:01:02.171Z,1.50
2023-01-28T23:06:56.966Z,1.60
2023-01-28T23:09:50.713Z,1.50
2023-01-28T23:15:31.815Z,1.50
2023-01-28T23:21:42.074Z,2.70
2023-01-28T23:24:36.137Z,1.50
2023-01-28T23:27:33.205Z,1.40
2023-01-28T23:30:27.909Z,1.40
2023-01-28T23:36:10.698Z,1.50
2023-01-28T23:47:54.008Z,1.50
2023-01-28T23:56:33.904Z,2.20
